sensor_id;sensor_type;location;lat;lon;timestamp;P1;durP1;ratioP1;P2;durP2;ratioP2
46054;SDS011;31788;6.954;-71.872;2022-12-07T00:00:44;8.65;;;4.20;;
46054;SDS011;31788;6.954;-71.872;2022-12-07T00:03:11;7.65;;;4.32;;
46054;SDS011;31788;6.954;-71.872;2022-12-07T00:05:37;10.88;;;5.78;;
46054;SDS011;31788;6.954;-71.872;2022-12-07T00:08:07;9.57;;;5.03;;
46054;SDS011;31788;6.954;-71.872;2022-12-07T00:10:34;7.47;;;4.53;;
46054;SDS011;31788;6.954;-71.872;2022-12-07T00:13:00;7.25;;;4.13;;
46054;SDS011;31788;6.954;-71.872;2022-12-07T00:15:27;5.90;;;3.80;;
46054;SDS011;31788;6.954;-71.872;2022-12-07T00:17:54;8.38;;;3.75;;
46054;SDS011;31788;6.954;-71.872;2022-12-07T00:20:20;6.43;;;3.55;;
46054;SDS011;31788;6.954;-71.872;2022-12-07T00:22:47;5.07;;;3.22;;
46054;SDS011;31788;6.954;-71.872;2022-12-07T00:25:13;7.05;;;3.30;;
46054;SDS011;31788;6.954;-71.872;2022-12-07T00:27:40;5.07;;;2.90;;
46054;SDS011;31788;6.954;-71.872;2022-12-07T00:30:06;4.50;;;2.60;;
46054;SDS011;31788;6.954;-71.872;2022-12-07T00:32:34;6.55;;;2.50;;
46054;SDS011;31788;6.954;-71.872;2022-12-07T00:35:00;4.35;;;2.20;;
46054;SDS011;31788;6.954;-71.872;2022-12-07T00:37:27;5.78;;;2.33;;
46054;SDS011;31788;6.954;-71.872;2022-12-07T00:39:53;4.07;;;2.23;;
46054;SDS011;31788;6.954;-71.872;2022-12-07T00:42:20;4.50;;;1.95;;
46054;SDS011;31788;6.954;-71.872;2022-12-07T00:44:47;4.85;;;2.40;;
46054;SDS011;31788;6.954;-71.872;2022-12-07T00:47:13;4.23;;;2.67;;
46054;SDS011;31788;6.954;-71.872;2022-12-07T00:49:40;7.25;;;2.95;;
46054;SDS011;31788;6.954;-71.872;2022-12-07T00:52:06;5.85;;;3.60;;
46054;SDS011;31788;6.954;-71.872;2022-12-07T00:54:33;7.07;;;3.65;;
46054;SDS011;31788;6.954;-71.872;2022-12-07T00:56:59;4.40;;;2.83;;
46054;SDS011;31788;6.954;-71.872;2022-12-07T00:59:26;4.10;;;2.70;;
46054;SDS011;31788;6.954;-71.872;2022-12-07T01:01:52;4.72;;;2.40;;
46054;SDS011;31788;6.954;-71.872;2022-12-07T01:04:19;6.40;;;2.42;;
46054;SDS011;31788;6.954;-71.872;2022-12-07T01:06:45;6.60;;;2.50;;
46054;SDS011;31788;6.954;-71.872;2022-12-07T01:09:13;4.93;;;2.40;;
46054;SDS011;31788;6.954;-71.872;2022-12-07T01:11:40;7.35;;;3.05;;
46054;SDS011;31788;6.954;-71.872;2022-12-07T01:14:06;9.32;;;3.53;;
46054;SDS011;31788;6.954;-71.872;2022-12-07T01:16:34;6.18;;;2.50;;
46054;SDS011;31788;6.954;-71.872;2022-12-07T01:19:00;4.20;;;2.20;;
46054;SDS011;31788;6.954;-71.872;2022-12-07T01:21:30;5.55;;;2.70;;
46054;SDS011;31788;6.954;-71.872;2022-12-07T01:24:01;5.87;;;2.50;;
46054;SDS011;31788;6.954;-71.872;2022-12-07T01:26:28;5.35;;;2.25;;
46054;SDS011;31788;6.954;-71.872;2022-12-07T01:28:54;5.15;;;2.50;;
46054;SDS011;31788;6.954;-71.872;2022-12-07T01:31:25;8.27;;;3.40;;
46054;SDS011;31788;6.954;-71.872;2022-12-07T01:33:56;5.07;;;3.13;;
46054;SDS011;31788;6.954;-71.872;2022-12-07T01:36:26;7.05;;;2.97;;
46054;SDS011;31788;6.954;-71.872;2022-12-07T01:38:56;4.72;;;2.33;;
46054;SDS011;31788;6.954;-71.872;2022-12-07T01:41:31;4.05;;;2.33;;
46054;SDS011;31788;6.954;-71.872;2022-12-07T01:46:57;4.95;;;2.38;;
46054;SDS011;31788;6.954;-71.872;2022-12-07T01:49:28;4.95;;;2.83;;
46054;SDS011;31788;6.954;-71.872;2022-12-07T01:54:41;4.57;;;2.95;;
46054;SDS011;31788;6.954;-71.872;2022-12-07T01:57:09;4.00;;;2.40;;
46054;SDS011;31788;6.954;-71.872;2022-12-07T01:59:37;4.80;;;2.23;;
46054;SDS011;31788;6.954;-71.872;2022-12-07T02:02:06;6.57;;;2.40;;
46054;SDS011;31788;6.954;-71.872;2022-12-07T02:04:37;3.97;;;2.70;;
46054;SDS011;31788;6.954;-71.872;2022-12-07T02:07:04;5.35;;;2.38;;
46054;SDS011;31788;6.954;-71.872;2022-12-07T02:09:32;2.78;;;2.10;;
46054;SDS011;31788;6.954;-71.872;2022-12-07T02:11:58;5.13;;;2.25;;
46054;SDS011;31788;6.954;-71.872;2022-12-07T02:14:26;3.75;;;2.00;;
46054;SDS011;31788;6.954;-71.872;2022-12-07T02:17:12;3.47;;;1.90;;
46054;SDS011;31788;6.954;-71.872;2022-12-07T02:22:44;4.88;;;1.90;;
46054;SDS011;31788;6.954;-71.872;2022-12-07T02:27:50;10.20;;;5.03;;
46054;SDS011;31788;6.954;-71.872;2022-12-07T02:30:28;8.13;;;3.87;;
46054;SDS011;31788;6.954;-71.872;2022-12-07T02:33:00;6.00;;;2.90;;
46054;SDS011;31788;6.954;-71.872;2022-12-07T02:35:42;4.18;;;2.30;;
46054;SDS011;31788;6.954;-71.872;2022-12-07T02:40:42;5.82;;;2.65;;
46054;SDS011;31788;6.954;-71.872;2022-12-07T02:43:46;10.07;;;5.00;;
46054;SDS011;31788;6.954;-71.872;2022-12-07T02:46:36;6.90;;;3.83;;
46054;SDS011;31788;6.954;-71.872;2022-12-07T02:49:07;6.10;;;3.70;;
46054;SDS011;31788;6.954;-71.872;2022-12-07T02:51:38;5.95;;;3.25;;
46054;SDS011;31788;6.954;-71.872;2022-12-07T02:54:17;7.22;;;3.22;;
46054;SDS011;31788;6.954;-71.872;2022-12-07T02:59:55;4.30;;;2.80;;
46054;SDS011;31788;6.954;-71.872;2022-12-07T03:05:12;3.38;;;2.53;;
46054;SDS011;31788;6.954;-71.872;2022-12-07T03:10:51;5.20;;;2.38;;
46054;SDS011;31788;6.954;-71.872;2022-12-07T03:21:14;4.78;;;2.85;;
46054;SDS011;31788;6.954;-71.872;2022-12-07T03:24:03;4.43;;;2.72;;
46054;SDS011;31788;6.954;-71.872;2022-12-07T03:26:48;2.95;;;2.17;;
46054;SDS011;31788;6.954;-71.872;2022-12-07T03:29:27;5.93;;;2.80;;
46054;SDS011;31788;6.954;-71.872;2022-12-07T03:32:02;4.05;;;3.08;;
46054;SDS011;31788;6.954;-71.872;2022-12-07T03:37:41;5.63;;;3.40;;
46054;SDS011;31788;6.954;-71.872;2022-12-07T03:40:57;5.32;;;2.80;;
46054;SDS011;31788;6.954;-71.872;2022-12-07T03:43:06;4.95;;;2.67;;
46054;SDS011;31788;6.954;-71.872;2022-12-07T03:45:37;3.78;;;2.60;;
46054;SDS011;31788;6.954;-71.872;2022-12-07T03:53:30;3.47;;;2.37;;
46054;SDS011;31788;6.954;-71.872;2022-12-07T03:56:02;3.03;;;2.00;;
46054;SDS011;31788;6.954;-71.872;2022-12-07T03:58:30;4.00;;;2.20;;
46054;SDS011;31788;6.954;-71.872;2022-12-07T04:00:57;3.95;;;2.17;;
46054;SDS011;31788;6.954;-71.872;2022-12-07T04:03:24;3.20;;;2.13;;
46054;SDS011;31788;6.954;-71.872;2022-12-07T04:05:53;4.40;;;2.00;;
46054;SDS011;31788;6.954;-71.872;2022-12-07T04:08:20;3.10;;;2.20;;
46054;SDS011;31788;6.954;-71.872;2022-12-07T04:10:46;3.25;;;2.00;;
46054;SDS011;31788;6.954;-71.872;2022-12-07T04:13:13;3.58;;;2.10;;
46054;SDS011;31788;6.954;-71.872;2022-12-07T04:15:40;4.88;;;2.40;;
46054;SDS011;31788;6.954;-71.872;2022-12-07T04:18:07;4.53;;;2.35;;
46054;SDS011;31788;6.954;-71.872;2022-12-07T04:20:34;3.97;;;2.42;;
46054;SDS011;31788;6.954;-71.872;2022-12-07T04:23:00;5.60;;;3.30;;
46054;SDS011;31788;6.954;-71.872;2022-12-07T04:25:27;3.80;;;2.40;;
46054;SDS011;31788;6.954;-71.872;2022-12-07T04:27:55;3.65;;;2.42;;
46054;SDS011;31788;6.954;-71.872;2022-12-07T04:30:21;3.50;;;2.30;;
46054;SDS011;31788;6.954;-71.872;2022-12-07T04:32:48;3.53;;;2.28;;
46054;SDS011;31788;6.954;-71.872;2022-12-07T04:35:14;3.20;;;2.20;;
46054;SDS011;31788;6.954;-71.872;2022-12-07T04:37:41;5.63;;;2.05;;
46054;SDS011;31788;6.954;-71.872;2022-12-07T04:40:08;3.05;;;2.22;;
46054;SDS011;31788;6.954;-71.872;2022-12-07T04:42:36;3.00;;;2.20;;
46054;SDS011;31788;6.954;-71.872;2022-12-07T04:45:03;3.50;;;2.20;;
46054;SDS011;31788;6.954;-71.872;2022-12-07T04:47:30;3.72;;;2.15;;
46054;SDS011;31788;6.954;-71.872;2022-12-07T04:49:57;3.63;;;2.60;;
46054;SDS011;31788;6.954;-71.872;2022-12-07T04:52:23;3.72;;;2.13;;
46054;SDS011;31788;6.954;-71.872;2022-12-07T04:54:51;3.28;;;2.33;;
46054;SDS011;31788;6.954;-71.872;2022-12-07T04:57:17;5.05;;;2.30;;
46054;SDS011;31788;6.954;-71.872;2022-12-07T04:59:44;4.00;;;2.45;;
46054;SDS011;31788;6.954;-71.872;2022-12-07T05:02:10;6.32;;;2.85;;
46054;SDS011;31788;6.954;-71.872;2022-12-07T05:04:37;3.58;;;2.25;;
46054;SDS011;31788;6.954;-71.872;2022-12-07T05:07:04;4.70;;;2.42;;
46054;SDS011;31788;6.954;-71.872;2022-12-07T05:09:30;4.10;;;2.25;;
46054;SDS011;31788;6.954;-71.872;2022-12-07T05:11:57;4.40;;;2.20;;
46054;SDS011;31788;6.954;-71.872;2022-12-07T05:14:23;3.40;;;2.20;;
46054;SDS011;31788;6.954;-71.872;2022-12-07T05:16:50;3.63;;;2.20;;
46054;SDS011;31788;6.954;-71.872;2022-12-07T05:19:18;4.30;;;2.40;;
46054;SDS011;31788;6.954;-71.872;2022-12-07T05:21:45;4.20;;;2.30;;
46054;SDS011;31788;6.954;-71.872;2022-12-07T05:24:13;3.58;;;2.17;;
46054;SDS011;31788;6.954;-71.872;2022-12-07T05:26:41;4.65;;;2.10;;
46054;SDS011;31788;6.954;-71.872;2022-12-07T05:29:10;4.15;;;1.95;;
46054;SDS011;31788;6.954;-71.872;2022-12-07T05:31:43;2.67;;;1.93;;
46054;SDS011;31788;6.954;-71.872;2022-12-07T05:34:10;4.25;;;2.00;;
46054;SDS011;31788;6.954;-71.872;2022-12-07T05:36:37;3.28;;;1.90;;
46054;SDS011;31788;6.954;-71.872;2022-12-07T05:39:04;4.57;;;2.00;;
46054;SDS011;31788;6.954;-71.872;2022-12-07T05:41:31;2.75;;;1.80;;
46054;SDS011;31788;6.954;-71.872;2022-12-07T05:44:16;2.80;;;1.70;;
46054;SDS011;31788;6.954;-71.872;2022-12-07T05:46:42;3.08;;;1.95;;
46054;SDS011;31788;6.954;-71.872;2022-12-07T05:49:09;3.53;;;1.75;;
46054;SDS011;31788;6.954;-71.872;2022-12-07T05:51:35;3.50;;;1.80;;
46054;SDS011;31788;6.954;-71.872;2022-12-07T05:54:02;3.75;;;1.77;;
46054;SDS011;31788;6.954;-71.872;2022-12-07T05:56:29;2.92;;;1.80;;
46054;SDS011;31788;6.954;-71.872;2022-12-07T05:58:55;2.72;;;1.90;;
46054;SDS011;31788;6.954;-71.872;2022-12-07T06:01:40;3.08;;;2.10;;
46054;SDS011;31788;6.954;-71.872;2022-12-07T06:04:07;3.15;;;1.95;;
46054;SDS011;31788;6.954;-71.872;2022-12-07T06:06:33;4.10;;;1.90;;
46054;SDS011;31788;6.954;-71.872;2022-12-07T06:09:00;2.58;;;1.83;;
46054;SDS011;31788;6.954;-71.872;2022-12-07T06:11:27;3.85;;;1.73;;
46054;SDS011;31788;6.954;-71.872;2022-12-07T06:14:12;3.85;;;1.92;;
46054;SDS011;31788;6.954;-71.872;2022-12-07T06:16:39;2.07;;;1.60;;
46054;SDS011;31788;6.954;-71.872;2022-12-07T06:19:06;3.50;;;1.90;;
46054;SDS011;31788;6.954;-71.872;2022-12-07T06:21:32;4.18;;;1.70;;
46054;SDS011;31788;6.954;-71.872;2022-12-07T06:23:59;3.50;;;1.80;;
46054;SDS011;31788;6.954;-71.872;2022-12-07T06:26:26;3.30;;;1.83;;
46054;SDS011;31788;6.954;-71.872;2022-12-07T06:28:52;2.47;;;1.98;;
46054;SDS011;31788;6.954;-71.872;2022-12-07T06:31:19;2.47;;;1.63;;
46054;SDS011;31788;6.954;-71.872;2022-12-07T06:33:45;4.30;;;1.90;;
46054;SDS011;31788;6.954;-71.872;2022-12-07T06:36:12;2.83;;;1.85;;
46054;SDS011;31788;6.954;-71.872;2022-12-07T06:38:39;4.30;;;2.27;;
46054;SDS011;31788;6.954;-71.872;2022-12-07T06:41:05;4.13;;;2.08;;
46054;SDS011;31788;6.954;-71.872;2022-12-07T06:43:32;2.90;;;1.80;;
46054;SDS011;31788;6.954;-71.872;2022-12-07T06:45:59;4.10;;;2.00;;
46054;SDS011;31788;6.954;-71.872;2022-12-07T06:48:25;3.07;;;2.07;;
46054;SDS011;31788;6.954;-71.872;2022-12-07T06:50:52;3.55;;;1.80;;
46054;SDS011;31788;6.954;-71.872;2022-12-07T06:53:18;3.45;;;1.92;;
46054;SDS011;31788;6.954;-71.872;2022-12-07T06:55:45;2.57;;;1.80;;
46054;SDS011;31788;6.954;-71.872;2022-12-07T06:58:11;3.63;;;1.90;;
46054;SDS011;31788;6.954;-71.872;2022-12-07T07:00:38;3.00;;;1.80;;
46054;SDS011;31788;6.954;-71.872;2022-12-07T07:03:04;3.55;;;1.90;;
46054;SDS011;31788;6.954;-71.872;2022-12-07T07:05:31;3.45;;;2.08;;
46054;SDS011;31788;6.954;-71.872;2022-12-07T07:07:57;3.90;;;2.08;;
46054;SDS011;31788;6.954;-71.872;2022-12-07T07:10:24;2.88;;;1.92;;
46054;SDS011;31788;6.954;-71.872;2022-12-07T07:12:51;2.30;;;1.70;;
46054;SDS011;31788;6.954;-71.872;2022-12-07T07:15:17;2.97;;;1.88;;
46054;SDS011;31788;6.954;-71.872;2022-12-07T07:17:43;2.95;;;1.90;;
46054;SDS011;31788;6.954;-71.872;2022-12-07T07:20:10;2.70;;;1.90;;
46054;SDS011;31788;6.954;-71.872;2022-12-07T07:22:37;3.38;;;1.90;;
46054;SDS011;31788;6.954;-71.872;2022-12-07T07:25:04;3.42;;;1.83;;
46054;SDS011;31788;6.954;-71.872;2022-12-07T07:27:31;2.60;;;1.80;;
46054;SDS011;31788;6.954;-71.872;2022-12-07T07:29:57;3.45;;;1.90;;
46054;SDS011;31788;6.954;-71.872;2022-12-07T07:32:24;2.30;;;1.80;;
46054;SDS011;31788;6.954;-71.872;2022-12-07T07:34:51;2.58;;;1.90;;
46054;SDS011;31788;6.954;-71.872;2022-12-07T07:37:17;2.25;;;1.70;;
46054;SDS011;31788;6.954;-71.872;2022-12-07T07:39:44;3.10;;;2.30;;
46054;SDS011;31788;6.954;-71.872;2022-12-07T07:42:10;2.58;;;1.80;;
46054;SDS011;31788;6.954;-71.872;2022-12-07T07:44:37;3.03;;;1.95;;
46054;SDS011;31788;6.954;-71.872;2022-12-07T07:47:03;4.07;;;1.97;;
46054;SDS011;31788;6.954;-71.872;2022-12-07T07:49:30;3.58;;;2.08;;
46054;SDS011;31788;6.954;-71.872;2022-12-07T07:51:56;2.97;;;1.90;;
46054;SDS011;31788;6.954;-71.872;2022-12-07T07:54:23;3.63;;;1.80;;
46054;SDS011;31788;6.954;-71.872;2022-12-07T07:56:50;2.50;;;1.92;;
46054;SDS011;31788;6.954;-71.872;2022-12-07T07:59:17;4.93;;;2.25;;
46054;SDS011;31788;6.954;-71.872;2022-12-07T08:01:44;2.10;;;1.87;;
46054;SDS011;31788;6.954;-71.872;2022-12-07T08:04:10;2.72;;;2.05;;
46054;SDS011;31788;6.954;-71.872;2022-12-07T08:06:37;2.80;;;1.80;;
46054;SDS011;31788;6.954;-71.872;2022-12-07T08:09:03;3.00;;;1.90;;
46054;SDS011;31788;6.954;-71.872;2022-12-07T08:11:31;2.60;;;1.83;;
46054;SDS011;31788;6.954;-71.872;2022-12-07T08:13:57;3.70;;;1.98;;
46054;SDS011;31788;6.954;-71.872;2022-12-07T08:16:24;4.40;;;2.00;;
46054;SDS011;31788;6.954;-71.872;2022-12-07T08:18:50;2.20;;;1.80;;
46054;SDS011;31788;6.954;-71.872;2022-12-07T08:21:17;2.58;;;1.90;;
46054;SDS011;31788;6.954;-71.872;2022-12-07T08:23:43;4.13;;;2.00;;
46054;SDS011;31788;6.954;-71.872;2022-12-07T08:26:11;2.40;;;1.70;;
46054;SDS011;31788;6.954;-71.872;2022-12-07T08:28:39;3.80;;;1.90;;
46054;SDS011;31788;6.954;-71.872;2022-12-07T08:31:07;2.70;;;1.80;;
46054;SDS011;31788;6.954;-71.872;2022-12-07T08:33:37;3.23;;;2.00;;
46054;SDS011;31788;6.954;-71.872;2022-12-07T08:36:05;2.50;;;1.90;;
46054;SDS011;31788;6.954;-71.872;2022-12-07T08:38:36;2.70;;;1.90;;
46054;SDS011;31788;6.954;-71.872;2022-12-07T08:41:04;4.00;;;2.00;;
46054;SDS011;31788;6.954;-71.872;2022-12-07T08:43:31;3.67;;;2.00;;
46054;SDS011;31788;6.954;-71.872;2022-12-07T08:46:03;3.42;;;2.10;;
46054;SDS011;31788;6.954;-71.872;2022-12-07T08:48:57;4.13;;;2.00;;
46054;SDS011;31788;6.954;-71.872;2022-12-07T08:51:29;3.92;;;1.98;;
46054;SDS011;31788;6.954;-71.872;2022-12-07T08:53:56;5.82;;;1.90;;
46054;SDS011;31788;6.954;-71.872;2022-12-07T08:56:26;3.45;;;1.98;;
46054;SDS011;31788;6.954;-71.872;2022-12-07T08:58:53;2.90;;;1.98;;
46054;SDS011;31788;6.954;-71.872;2022-12-07T09:01:19;2.30;;;1.85;;
46054;SDS011;31788;6.954;-71.872;2022-12-07T09:03:46;2.25;;;1.90;;
46054;SDS011;31788;6.954;-71.872;2022-12-07T09:06:13;3.25;;;2.00;;
46054;SDS011;31788;6.954;-71.872;2022-12-07T09:08:40;2.72;;;2.05;;
46054;SDS011;31788;6.954;-71.872;2022-12-07T09:11:11;2.80;;;1.90;;
46054;SDS011;31788;6.954;-71.872;2022-12-07T09:13:37;3.55;;;2.00;;
46054;SDS011;31788;6.954;-71.872;2022-12-07T09:16:04;2.37;;;1.83;;
46054;SDS011;31788;6.954;-71.872;2022-12-07T09:18:31;3.60;;;2.00;;
46054;SDS011;31788;6.954;-71.872;2022-12-07T09:20:57;2.28;;;1.80;;
46054;SDS011;31788;6.954;-71.872;2022-12-07T09:23:24;3.90;;;2.30;;
46054;SDS011;31788;6.954;-71.872;2022-12-07T09:25:50;2.50;;;1.87;;
46054;SDS011;31788;6.954;-71.872;2022-12-07T09:28:17;3.00;;;2.00;;
46054;SDS011;31788;6.954;-71.872;2022-12-07T09:30:47;2.17;;;1.92;;
46054;SDS011;31788;6.954;-71.872;2022-12-07T09:33:14;3.63;;;1.90;;
46054;SDS011;31788;6.954;-71.872;2022-12-07T09:35:47;2.33;;;2.00;;
46054;SDS011;31788;6.954;-71.872;2022-12-07T09:38:15;3.33;;;2.20;;
46054;SDS011;31788;6.954;-71.872;2022-12-07T09:40:42;3.80;;;2.30;;
46054;SDS011;31788;6.954;-71.872;2022-12-07T09:43:13;3.05;;;2.25;;
46054;SDS011;31788;6.954;-71.872;2022-12-07T09:45:43;4.40;;;2.20;;
46054;SDS011;31788;6.954;-71.872;2022-12-07T09:48:16;4.57;;;1.98;;
46054;SDS011;31788;6.954;-71.872;2022-12-07T09:50:44;3.57;;;2.17;;
46054;SDS011;31788;6.954;-71.872;2022-12-07T09:53:14;3.80;;;2.30;;
46054;SDS011;31788;6.954;-71.872;2022-12-07T09:56:00;3.40;;;2.30;;
46054;SDS011;31788;6.954;-71.872;2022-12-07T09:58:27;2.92;;;2.30;;
46054;SDS011;31788;6.954;-71.872;2022-12-07T10:00:59;3.35;;;2.13;;
46054;SDS011;31788;6.954;-71.872;2022-12-07T10:03:36;4.72;;;2.42;;
46054;SDS011;31788;6.954;-71.872;2022-12-07T10:06:05;4.20;;;2.50;;
46054;SDS011;31788;6.954;-71.872;2022-12-07T10:08:32;5.53;;;2.70;;
46054;SDS011;31788;6.954;-71.872;2022-12-07T10:11:02;4.10;;;2.58;;
46054;SDS011;31788;6.954;-71.872;2022-12-07T10:13:40;6.90;;;2.63;;
46054;SDS011;31788;6.954;-71.872;2022-12-07T10:18:53;4.40;;;2.67;;
46054;SDS011;31788;6.954;-71.872;2022-12-07T10:21:21;3.10;;;2.30;;
46054;SDS011;31788;6.954;-71.872;2022-12-07T10:24:02;4.00;;;2.70;;
46054;SDS011;31788;6.954;-71.872;2022-12-07T10:26:33;2.97;;;2.35;;
46054;SDS011;31788;6.954;-71.872;2022-12-07T10:29:23;5.35;;;2.30;;
46054;SDS011;31788;6.954;-71.872;2022-12-07T10:32:00;4.00;;;2.20;;
46054;SDS011;31788;6.954;-71.872;2022-12-07T10:34:49;5.95;;;2.78;;
46054;SDS011;31788;6.954;-71.872;2022-12-07T10:37:17;3.85;;;2.67;;
46054;SDS011;31788;6.954;-71.872;2022-12-07T10:39:52;4.47;;;2.70;;
46054;SDS011;31788;6.954;-71.872;2022-12-07T10:45:36;4.70;;;2.72;;
46054;SDS011;31788;6.954;-71.872;2022-12-07T10:50:49;4.68;;;3.30;;
46054;SDS011;31788;6.954;-71.872;2022-12-07T10:53:26;5.32;;;3.65;;
46054;SDS011;31788;6.954;-71.872;2022-12-07T11:23:44;4.38;;;2.80;;
46054;SDS011;31788;6.954;-71.872;2022-12-07T11:37:59;6.57;;;3.10;;
46054;SDS011;31788;6.954;-71.872;2022-12-07T11:40:34;4.20;;;2.97;;
46054;SDS011;31788;6.954;-71.872;2022-12-07T11:46:12;4.18;;;2.60;;
46054;SDS011;31788;6.954;-71.872;2022-12-07T11:51:21;5.45;;;2.80;;
46054;SDS011;31788;6.954;-71.872;2022-12-07T11:56:23;4.63;;;3.00;;
46054;SDS011;31788;6.954;-71.872;2022-12-07T11:59:00;4.20;;;2.80;;
46054;SDS011;31788;6.954;-71.872;2022-12-07T12:05:17;4.25;;;2.60;;
46054;SDS011;31788;6.954;-71.872;2022-12-07T12:07:47;3.72;;;2.55;;
46054;SDS011;31788;6.954;-71.872;2022-12-07T12:19:22;4.35;;;2.53;;
46054;SDS011;31788;6.954;-71.872;2022-12-07T12:22:00;4.90;;;2.45;;
46054;SDS011;31788;6.954;-71.872;2022-12-07T12:24:44;3.58;;;2.58;;
46054;SDS011;31788;6.954;-71.872;2022-12-07T12:29:55;3.85;;;2.30;;
46054;SDS011;31788;6.954;-71.872;2022-12-07T12:38:25;2.55;;;2.35;;
46054;SDS011;31788;6.954;-71.872;2022-12-07T12:40:57;3.95;;;2.45;;
46054;SDS011;31788;6.954;-71.872;2022-12-07T12:43:40;5.10;;;2.58;;
46054;SDS011;31788;6.954;-71.872;2022-12-07T12:51:50;4.82;;;2.70;;
46054;SDS011;31788;6.954;-71.872;2022-12-07T12:54:22;4.07;;;2.40;;
46054;SDS011;31788;6.954;-71.872;2022-12-07T13:04:53;3.15;;;2.40;;
46054;SDS011;31788;6.954;-71.872;2022-12-07T13:15:51;4.00;;;2.40;;
46054;SDS011;31788;6.954;-71.872;2022-12-07T13:18:40;5.00;;;2.50;;
46054;SDS011;31788;6.954;-71.872;2022-12-07T13:23:36;3.90;;;2.50;;
46054;SDS011;31788;6.954;-71.872;2022-12-07T13:36:57;4.32;;;2.60;;
46054;SDS011;31788;6.954;-71.872;2022-12-07T13:39:49;3.90;;;2.50;;
46054;SDS011;31788;6.954;-71.872;2022-12-07T13:44:56;4.40;;;2.60;;
46054;SDS011;31788;6.954;-71.872;2022-12-07T13:49:52;3.65;;;2.40;;
46054;SDS011;31788;6.954;-71.872;2022-12-07T13:55:05;4.80;;;2.57;;
46054;SDS011;31788;6.954;-71.872;2022-12-07T13:57:40;3.65;;;2.70;;
46054;SDS011;31788;6.954;-71.872;2022-12-07T14:00:17;4.47;;;3.00;;
46054;SDS011;31788;6.954;-71.872;2022-12-07T14:02:57;3.90;;;2.63;;
46054;SDS011;31788;6.954;-71.872;2022-12-07T14:06:02;4.40;;;2.85;;
46054;SDS011;31788;6.954;-71.872;2022-12-07T14:08:41;5.03;;;2.87;;
46054;SDS011;31788;6.954;-71.872;2022-12-07T14:11:10;4.90;;;2.90;;
46054;SDS011;31788;6.954;-71.872;2022-12-07T14:13:51;4.10;;;2.97;;
46054;SDS011;31788;6.954;-71.872;2022-12-07T14:16:26;6.53;;;3.40;;
46054;SDS011;31788;6.954;-71.872;2022-12-07T14:18:58;4.55;;;2.78;;
46054;SDS011;31788;6.954;-71.872;2022-12-07T14:21:27;4.00;;;2.80;;
46054;SDS011;31788;6.954;-71.872;2022-12-07T14:26:45;3.67;;;2.50;;
46054;SDS011;31788;6.954;-71.872;2022-12-07T14:29:20;4.10;;;2.55;;
46054;SDS011;31788;6.954;-71.872;2022-12-07T14:31:52;3.70;;;2.47;;
46054;SDS011;31788;6.954;-71.872;2022-12-07T14:34:22;3.92;;;2.60;;
46054;SDS011;31788;6.954;-71.872;2022-12-07T14:36:50;6.18;;;4.18;;
46054;SDS011;31788;6.954;-71.872;2022-12-07T14:39:16;7.32;;;4.25;;
46054;SDS011;31788;6.954;-71.872;2022-12-07T14:41:43;6.47;;;4.00;;
46054;SDS011;31788;6.954;-71.872;2022-12-07T14:44:16;6.45;;;3.90;;
46054;SDS011;31788;6.954;-71.872;2022-12-07T14:46:47;4.67;;;3.40;;
46054;SDS011;31788;6.954;-71.872;2022-12-07T14:49:17;4.63;;;2.70;;
46054;SDS011;31788;6.954;-71.872;2022-12-07T14:51:44;4.88;;;2.90;;
46054;SDS011;31788;6.954;-71.872;2022-12-07T14:54:16;5.28;;;2.75;;
46054;SDS011;31788;6.954;-71.872;2022-12-07T14:56:44;3.45;;;2.50;;
46054;SDS011;31788;6.954;-71.872;2022-12-07T14:59:17;4.40;;;2.57;;
46054;SDS011;31788;6.954;-71.872;2022-12-07T15:01:44;3.80;;;2.47;;
46054;SDS011;31788;6.954;-71.872;2022-12-07T15:04:11;3.30;;;2.30;;
46054;SDS011;31788;6.954;-71.872;2022-12-07T15:06:38;3.33;;;2.20;;
46054;SDS011;31788;6.954;-71.872;2022-12-07T15:09:04;2.70;;;2.13;;
46054;SDS011;31788;6.954;-71.872;2022-12-07T15:11:31;3.67;;;1.90;;
46054;SDS011;31788;6.954;-71.872;2022-12-07T15:13:57;4.25;;;2.10;;
46054;SDS011;31788;6.954;-71.872;2022-12-07T15:16:37;3.55;;;2.20;;
46054;SDS011;31788;6.954;-71.872;2022-12-07T15:19:05;2.90;;;2.00;;
46054;SDS011;31788;6.954;-71.872;2022-12-07T15:21:37;2.80;;;2.00;;
46054;SDS011;31788;6.954;-71.872;2022-12-07T15:24:04;2.55;;;1.90;;
46054;SDS011;31788;6.954;-71.872;2022-12-07T15:26:31;4.20;;;1.80;;
46054;SDS011;31788;6.954;-71.872;2022-12-07T15:28:57;3.53;;;2.00;;
46054;SDS011;31788;6.954;-71.872;2022-12-07T15:31:24;5.05;;;2.15;;
46054;SDS011;31788;6.954;-71.872;2022-12-07T15:33:50;3.22;;;1.88;;
46054;SDS011;31788;6.954;-71.872;2022-12-07T15:36:27;6.22;;;2.72;;
46054;SDS011;31788;6.954;-71.872;2022-12-07T15:38:55;3.87;;;2.20;;
46054;SDS011;31788;6.954;-71.872;2022-12-07T15:41:23;6.65;;;2.30;;
46054;SDS011;31788;6.954;-71.872;2022-12-07T15:43:50;4.20;;;2.60;;
46054;SDS011;31788;6.954;-71.872;2022-12-07T15:46:36;6.00;;;2.40;;
46054;SDS011;31788;6.954;-71.872;2022-12-07T15:49:07;5.85;;;2.40;;
46054;SDS011;31788;6.954;-71.872;2022-12-07T15:51:36;9.88;;;6.15;;
46054;SDS011;31788;6.954;-71.872;2022-12-07T15:54:03;8.87;;;5.03;;
46054;SDS011;31788;6.954;-71.872;2022-12-07T15:56:30;15.35;;;5.43;;
46054;SDS011;31788;6.954;-71.872;2022-12-07T15:58:56;14.02;;;4.88;;
46054;SDS011;31788;6.954;-71.872;2022-12-07T16:01:23;11.18;;;4.00;;
46054;SDS011;31788;6.954;-71.872;2022-12-07T16:03:49;11.02;;;3.90;;
46054;SDS011;31788;6.954;-71.872;2022-12-07T16:06:16;10.10;;;4.15;;
46054;SDS011;31788;6.954;-71.872;2022-12-07T16:08:44;8.73;;;3.78;;
46054;SDS011;31788;6.954;-71.872;2022-12-07T16:11:11;14.00;;;4.57;;
46054;SDS011;31788;6.954;-71.872;2022-12-07T16:13:38;13.00;;;4.20;;
46054;SDS011;31788;6.954;-71.872;2022-12-07T16:16:07;15.90;;;3.85;;
46054;SDS011;31788;6.954;-71.872;2022-12-07T16:18:36;13.25;;;4.20;;
46054;SDS011;31788;6.954;-71.872;2022-12-07T16:21:03;14.43;;;4.18;;
46054;SDS011;31788;6.954;-71.872;2022-12-07T16:23:30;12.88;;;4.18;;
46054;SDS011;31788;6.954;-71.872;2022-12-07T16:26:06;10.55;;;3.78;;
46054;SDS011;31788;6.954;-71.872;2022-12-07T16:28:35;10.07;;;3.65;;
46054;SDS011;31788;6.954;-71.872;2022-12-07T16:31:06;11.55;;;3.25;;
46054;SDS011;31788;6.954;-71.872;2022-12-07T16:33:37;10.43;;;3.95;;
46054;SDS011;31788;6.954;-71.872;2022-12-07T16:36:05;9.93;;;3.20;;
46054;SDS011;31788;6.954;-71.872;2022-12-07T16:38:33;10.30;;;3.60;;
46054;SDS011;31788;6.954;-71.872;2022-12-07T16:41:01;14.73;;;4.05;;
46054;SDS011;31788;6.954;-71.872;2022-12-07T16:43:27;12.82;;;3.65;;
46054;SDS011;31788;6.954;-71.872;2022-12-07T16:45:54;14.27;;;3.30;;
46054;SDS011;31788;6.954;-71.872;2022-12-07T16:48:21;8.68;;;2.90;;
46054;SDS011;31788;6.954;-71.872;2022-12-07T16:50:47;14.52;;;3.45;;
46054;SDS011;31788;6.954;-71.872;2022-12-07T16:53:15;13.75;;;3.35;;
46054;SDS011;31788;6.954;-71.872;2022-12-07T16:55:44;15.02;;;3.53;;
46054;SDS011;31788;6.954;-71.872;2022-12-07T16:58:14;16.48;;;3.08;;
46054;SDS011;31788;6.954;-71.872;2022-12-07T17:00:42;8.70;;;2.95;;
46054;SDS011;31788;6.954;-71.872;2022-12-07T17:03:10;10.55;;;3.03;;
46054;SDS011;31788;6.954;-71.872;2022-12-07T17:05:37;11.15;;;3.08;;
46054;SDS011;31788;6.954;-71.872;2022-12-07T17:08:09;8.00;;;2.65;;
46054;SDS011;31788;6.954;-71.872;2022-12-07T17:10:37;5.88;;;2.90;;
46054;SDS011;31788;6.954;-71.872;2022-12-07T17:13:06;8.25;;;2.95;;
46054;SDS011;31788;6.954;-71.872;2022-12-07T17:15:58;9.50;;;5.80;;
46054;SDS011;31788;6.954;-71.872;2022-12-07T17:18:29;5.30;;;2.60;;
46054;SDS011;31788;6.954;-71.872;2022-12-07T17:21:03;6.82;;;2.40;;
46054;SDS011;31788;6.954;-71.872;2022-12-07T17:23:32;6.18;;;2.65;;
46054;SDS011;31788;6.954;-71.872;2022-12-07T17:26:10;4.43;;;2.30;;
46054;SDS011;31788;6.954;-71.872;2022-12-07T17:28:38;3.40;;;2.00;;
46054;SDS011;31788;6.954;-71.872;2022-12-07T17:31:05;3.95;;;1.90;;